Teruhou Maru No.22 — JD3202 — position and weather

sailwx.info

Track history (hours):
 
Tides and Currents Weather Stations Pressure Air Temp Water Temp Dewpoint Dewpoint Depression Visibility Wind Speed Wind Dir Waves Ship Positions

Teruhou Maru No.22

Last reported at 2014-Sep-16 04:33 UTC. Time now 2014-Sep-16 04:58 UTC.
Position N 35°41' E 139°58'.

Length 76 m; draft 4 m.

Type: Cargo ship. MMSI: 431002552.

Date/timePositionNaut miles runAvg speedWind from/ knotsBaromVisibWave heightAir tempDewpointWater temp
2014-Sep-16 04:33N 35°41' E 139°58'0 0.0
2014-Sep-16 03:34N 35°41' E 139°58'0 0.0
2014-Sep-16 02:33N 35°41' E 139°58'0 0.0
2014-Sep-16 01:33N 35°41' E 139°58'0 0.0
2014-Sep-16 00:33N 35°41' E 139°58'0 0.0
2014-Sep-15 23:34N 35°41' E 139°58'0 0.0
2014-Sep-15 22:33N 35°41' E 139°58'0 0.0
2014-Sep-15 21:33N 35°41' E 139°58'0 0.0
2014-Sep-15 20:33N 35°41' E 139°58'0 0.0
2014-Sep-15 19:34N 35°41' E 139°58'0 0.0
2014-Sep-15 18:33N 35°41' E 139°58'0 0.0
2014-Sep-15 17:34N 35°41' E 139°58'0 0.0
2014-Sep-15 16:34N 35°41' E 139°58'0 0.0
2014-Sep-15 15:33N 35°41' E 139°58'0 0.0
2014-Sep-15 14:33N 35°41' E 139°58'0 0.0
2014-Sep-15 13:33N 35°41' E 139°58'0 0.0
2014-Sep-15 12:33N 35°41' E 139°58'0 0.0
2014-Sep-15 11:33N 35°41' E 139°58'0 0.0
2014-Sep-15 10:33N 35°41' E 139°58'0 0.0
2014-Sep-15 09:33N 35°41' E 139°58'0 0.0
2014-Sep-15 08:34N 35°41' E 139°58'0 0.0
2014-Sep-15 07:34N 35°41' E 139°58'0 0.0
2014-Sep-15 06:33N 35°41' E 139°58'0 0.0
2014-Sep-15 05:33N 35°41' E 139°58'0 0.0
2014-Sep-15 04:34N 35°41' E 139°58'2 1.7
2014-Sep-15 03:34N 35°39' E 139°58'1 1.4
2014-Sep-15 02:33N 35°38' E 139°59'0 0.0
2014-Sep-15 01:34N 35°38' E 139°59'0 0.0
2014-Sep-15 00:33N 35°38' E 139°59'0 0.0
2014-Sep-14 23:34N 35°38' E 139°59'8 8.0
2014-Sep-14 22:33N 35°31' E 139°53'1211.7
2014-Sep-14 21:33N 35°21' E 139°45'1111.2
2014-Sep-14 20:33N 35°10' E 139°46'245 9.6
2014-Sep-13 19:04N 34°04' E 134°60'612.1
2014-Sep-13 18:33N 34°10' E 134°59'1313.1
2014-Sep-13 17:33N 34°24' E 134°60'1211.8
2014-Sep-13 16:33N 34°35' E 135°03'1210.1
2014-Sep-13 15:20N 34°40' E 134°49'1 0.1
2014-Sep-13 05:20N 34°41' E 134°49'3 0.7
2014-Sep-13 00:21N 34°39' E 134°52'1113.8
2014-Sep-12 23:34N 34°36' E 135°04'  
2014-Sep-09 23:15N 33°59' E 135°03'811.9
2014-Sep-09 22:34N 34°07' E 135°03'1310.7
2014-Sep-09 21:19N 34°20' E 135°06'4 5.5
2014-Sep-09 20:33N 34°22' E 135°10'0 0.0
2014-Sep-09 19:33N 34°22' E 135°10'0 0.0
2014-Sep-09 18:32N 34°22' E 135°10'0 0.0
2014-Sep-09 17:33N 34°22' E 135°10'0 0.0
2014-Sep-09 16:33N 34°22' E 135°10'0 0.0
2014-Sep-09 15:33N 34°22' E 135°10'0 0.0
2014-Sep-09 14:31N 34°22' E 135°10'0 0.0
2014-Sep-09 13:33N 34°22' E 135°10'0 0.0
2014-Sep-09 12:33N 34°22' E 135°10'0 0.1
2014-Sep-09 11:33N 34°22' E 135°10'0 0.0
2014-Sep-09 10:33N 34°22' E 135°10'0 0.0
2014-Sep-09 09:34N 34°22' E 135°10'0 0.0
2014-Sep-09 08:33N 34°22' E 135°10'0 0.0
2014-Sep-09 06:33N 34°22' E 135°10'0 0.0
2014-Sep-09 05:33N 34°22' E 135°10'0 0.0
2014-Sep-09 04:33N 34°22' E 135°10'0 0.0
2014-Sep-09 03:33N 34°22' E 135°10'0 0.0
2014-Sep-09 01:24N 34°22' E 135°10'1 0.8
2014-Sep-09 00:31N 34°23' E 135°10'1111.6
2014-Sep-08 23:33N 34°33' E 135°04'9 7.9
2014-Sep-08 22:21N 34°37' E 134°53'  
Track history (hours):
 
Tides and Currents Weather Stations Pressure Air Temp Water Temp Dewpoint Dewpoint Depression Visibility Wind Speed Wind Dir Waves Ship Positions

Teruhou Maru No.22

Last reported at 2014-Sep-16 04:33 UTC. Time now 2014-Sep-16 04:58 UTC.
Position N 35°41' E 139°58'.

Length 76 m; draft 4 m.

Type: Cargo ship. MMSI: 431002552.

Date/timePositionNaut miles runAvg speedWind from/ knotsBaromVisibWave heightAir tempDewpointWater temp
2014-Sep-16 04:33N 35°41' E 139°58'0 0.0
2014-Sep-16 03:34N 35°41' E 139°58'0 0.0
2014-Sep-16 02:33N 35°41' E 139°58'0 0.0
2014-Sep-16 01:33N 35°41' E 139°58'0 0.0
2014-Sep-16 00:33N 35°41' E 139°58'0 0.0
2014-Sep-15 23:34N 35°41' E 139°58'0 0.0
2014-Sep-15 22:33N 35°41' E 139°58'0 0.0
2014-Sep-15 21:33N 35°41' E 139°58'0 0.0
2014-Sep-15 20:33N 35°41' E 139°58'0 0.0
2014-Sep-15 19:34N 35°41' E 139°58'0 0.0
2014-Sep-15 18:33N 35°41' E 139°58'0 0.0
2014-Sep-15 17:34N 35°41' E 139°58'0 0.0
2014-Sep-15 16:34N 35°41' E 139°58'0 0.0
2014-Sep-15 15:33N 35°41' E 139°58'0 0.0
2014-Sep-15 14:33N 35°41' E 139°58'0 0.0
2014-Sep-15 13:33N 35°41' E 139°58'0 0.0
2014-Sep-15 12:33N 35°41' E 139°58'0 0.0
2014-Sep-15 11:33N 35°41' E 139°58'0 0.0
2014-Sep-15 10:33N 35°41' E 139°58'0 0.0
2014-Sep-15 09:33N 35°41' E 139°58'0 0.0
2014-Sep-15 08:34N 35°41' E 139°58'0 0.0
2014-Sep-15 07:34N 35°41' E 139°58'0 0.0
2014-Sep-15 06:33N 35°41' E 139°58'0 0.0
2014-Sep-15 05:33N 35°41' E 139°58'0 0.0
2014-Sep-15 04:34N 35°41' E 139°58'2 1.7
2014-Sep-15 03:34N 35°39' E 139°58'1 1.4
2014-Sep-15 02:33N 35°38' E 139°59'0 0.0
2014-Sep-15 01:34N 35°38' E 139°59'0 0.0
2014-Sep-15 00:33N 35°38' E 139°59'0 0.0
2014-Sep-14 23:34N 35°38' E 139°59'8 8.0
2014-Sep-14 22:33N 35°31' E 139°53'1211.7
2014-Sep-14 21:33N 35°21' E 139°45'1111.2
2014-Sep-14 20:33N 35°10' E 139°46'245 9.6
2014-Sep-13 19:04N 34°04' E 134°60'612.1
2014-Sep-13 18:33N 34°10' E 134°59'1313.1
2014-Sep-13 17:33N 34°24' E 134°60'1211.8
2014-Sep-13 16:33N 34°35' E 135°03'1210.1
2014-Sep-13 15:20N 34°40' E 134°49'1 0.1
2014-Sep-13 05:20N 34°41' E 134°49'3 0.7
2014-Sep-13 00:21N 34°39' E 134°52'1113.8
2014-Sep-12 23:34N 34°36' E 135°04'  
2014-Sep-09 23:15N 33°59' E 135°03'811.9
2014-Sep-09 22:34N 34°07' E 135°03'1310.7
2014-Sep-09 21:19N 34°20' E 135°06'4 5.5
2014-Sep-09 20:33N 34°22' E 135°10'0 0.0
2014-Sep-09 19:33N 34°22' E 135°10'0 0.0
2014-Sep-09 18:32N 34°22' E 135°10'0 0.0
2014-Sep-09 17:33N 34°22' E 135°10'0 0.0
2014-Sep-09 16:33N 34°22' E 135°10'0 0.0
2014-Sep-09 15:33N 34°22' E 135°10'0 0.0
2014-Sep-09 14:31N 34°22' E 135°10'0 0.0
2014-Sep-09 13:33N 34°22' E 135°10'0 0.0
2014-Sep-09 12:33N 34°22' E 135°10'0 0.1
2014-Sep-09 11:33N 34°22' E 135°10'0 0.0
2014-Sep-09 10:33N 34°22' E 135°10'0 0.0
2014-Sep-09 09:34N 34°22' E 135°10'0 0.0
2014-Sep-09 08:33N 34°22' E 135°10'0 0.0
2014-Sep-09 06:33N 34°22' E 135°10'0 0.0
2014-Sep-09 05:33N 34°22' E 135°10'0 0.0
2014-Sep-09 04:33N 34°22' E 135°10'0 0.0
2014-Sep-09 03:33N 34°22' E 135°10'0 0.0
2014-Sep-09 01:24N 34°22' E 135°10'1 0.8
2014-Sep-09 00:31N 34°23' E 135°10'1111.6
2014-Sep-08 23:33N 34°33' E 135°04'9 7.9
2014-Sep-08 22:21N 34°37' E 134°53'  

Dump ship's entire track history